sensor_id;sensor_type;location;lat;lon;timestamp;temperature;humidity
13310;DHT22;6723;48.256;16.402;2023-06-10T00:02:21;17.60;99.90
13310;DHT22;6723;48.256;16.402;2023-06-10T00:04:47;17.60;99.90
13310;DHT22;6723;48.256;16.402;2023-06-10T00:07:13;17.50;99.90
13310;DHT22;6723;48.256;16.402;2023-06-10T00:09:39;17.50;99.90
13310;DHT22;6723;48.256;16.402;2023-06-10T00:12:05;17.50;99.90
13310;DHT22;6723;48.256;16.402;2023-06-10T00:14:33;17.50;99.90
13310;DHT22;6723;48.256;16.402;2023-06-10T00:19:58;17.50;99.90
13310;DHT22;6723;48.256;16.402;2023-06-10T00:22:24;17.40;99.90
13310;DHT22;6723;48.256;16.402;2023-06-10T00:24:55;17.40;99.90
13310;DHT22;6723;48.256;16.402;2023-06-10T00:27:24;17.40;99.90
13310;DHT22;6723;48.256;16.402;2023-06-10T00:29:52;17.40;99.90
13310;DHT22;6723;48.256;16.402;2023-06-10T00:32:17;17.30;99.90
13310;DHT22;6723;48.256;16.402;2023-06-10T00:34:43;17.30;99.90
13310;DHT22;6723;48.256;16.402;2023-06-10T00:37:09;17.30;99.90
13310;DHT22;6723;48.256;16.402;2023-06-10T00:39:34;17.30;99.90
13310;DHT22;6723;48.256;16.402;2023-06-10T00:42:00;17.30;99.90
13310;DHT22;6723;48.256;16.402;2023-06-10T00:44:26;17.20;99.90
13310;DHT22;6723;48.256;16.402;2023-06-10T00:46:51;17.20;99.90
13310;DHT22;6723;48.256;16.402;2023-06-10T00:49:20;17.20;99.90
13310;DHT22;6723;48.256;16.402;2023-06-10T00:51:46;17.20;99.90
13310;DHT22;6723;48.256;16.402;2023-06-10T00:54:12;17.20;99.90
13310;DHT22;6723;48.256;16.402;2023-06-10T00:56:39;17.30;99.90
13310;DHT22;6723;48.256;16.402;2023-06-10T00:59:05;17.30;99.90
13310;DHT22;6723;48.256;16.402;2023-06-10T01:01:31;17.30;99.90
13310;DHT22;6723;48.256;16.402;2023-06-10T01:03:57;17.40;99.90
13310;DHT22;6723;48.256;16.402;2023-06-10T01:06:34;17.40;99.90
13310;DHT22;6723;48.256;16.402;2023-06-10T01:09:38;17.40;99.90
13310;DHT22;6723;48.256;16.402;2023-06-10T01:14:52;17.40;99.90
13310;DHT22;6723;48.256;16.402;2023-06-10T01:17:19;17.40;99.90
13310;DHT22;6723;48.256;16.402;2023-06-10T01:19:54;17.30;99.90
13310;DHT22;6723;48.256;16.402;2023-06-10T01:22:21;17.30;99.90
13310;DHT22;6723;48.256;16.402;2023-06-10T01:24:48;17.30;99.90
13310;DHT22;6723;48.256;16.402;2023-06-10T01:27:17;17.20;99.90
13310;DHT22;6723;48.256;16.402;2023-06-10T01:29:47;17.20;99.90
13310;DHT22;6723;48.256;16.402;2023-06-10T01:32:30;17.30;99.90
13310;DHT22;6723;48.256;16.402;2023-06-10T01:34:57;17.30;99.90
13310;DHT22;6723;48.256;16.402;2023-06-10T01:37:25;17.30;99.90
13310;DHT22;6723;48.256;16.402;2023-06-10T01:39:52;17.30;99.90
13310;DHT22;6723;48.256;16.402;2023-06-10T01:42:21;17.40;99.90
13310;DHT22;6723;48.256;16.402;2023-06-10T01:44:47;17.30;99.90
13310;DHT22;6723;48.256;16.402;2023-06-10T01:47:12;17.30;99.90
13310;DHT22;6723;48.256;16.402;2023-06-10T01:49:38;17.30;99.90
13310;DHT22;6723;48.256;16.402;2023-06-10T01:52:04;17.40;99.90
13310;DHT22;6723;48.256;16.402;2023-06-10T01:54:30;17.40;99.90
13310;DHT22;6723;48.256;16.402;2023-06-10T01:56:56;17.30;99.90
13310;DHT22;6723;48.256;16.402;2023-06-10T01:59:22;17.30;99.90
13310;DHT22;6723;48.256;16.402;2023-06-10T02:01:48;17.30;99.90
13310;DHT22;6723;48.256;16.402;2023-06-10T02:04:13;17.30;99.90
13310;DHT22;6723;48.256;16.402;2023-06-10T02:06:39;17.30;99.90
13310;DHT22;6723;48.256;16.402;2023-06-10T02:09:05;17.30;99.90
13310;DHT22;6723;48.256;16.402;2023-06-10T02:11:30;17.30;99.90
13310;DHT22;6723;48.256;16.402;2023-06-10T02:13:56;17.30;99.90
13310;DHT22;6723;48.256;16.402;2023-06-10T02:16:22;17.30;99.90
13310;DHT22;6723;48.256;16.402;2023-06-10T02:18:47;17.20;99.90
13310;DHT22;6723;48.256;16.402;2023-06-10T02:21:14;17.20;99.90
13310;DHT22;6723;48.256;16.402;2023-06-10T02:23:40;17.20;99.90
13310;DHT22;6723;48.256;16.402;2023-06-10T02:26:06;17.20;99.90
13310;DHT22;6723;48.256;16.402;2023-06-10T02:28:31;17.20;99.90
13310;DHT22;6723;48.256;16.402;2023-06-10T02:30:57;17.20;99.90
13310;DHT22;6723;48.256;16.402;2023-06-10T02:33:24;17.20;99.90
13310;DHT22;6723;48.256;16.402;2023-06-10T02:35:50;17.20;99.90
13310;DHT22;6723;48.256;16.402;2023-06-10T02:38:16;17.10;99.90
13310;DHT22;6723;48.256;16.402;2023-06-10T02:40:42;17.10;99.90
13310;DHT22;6723;48.256;16.402;2023-06-10T02:43:09;17.10;99.90
13310;DHT22;6723;48.256;16.402;2023-06-10T02:45:35;17.20;99.90
13310;DHT22;6723;48.256;16.402;2023-06-10T02:48:01;17.10;99.90
13310;DHT22;6723;48.256;16.402;2023-06-10T02:50:26;17.10;99.90
13310;DHT22;6723;48.256;16.402;2023-06-10T02:52:52;17.10;99.90
13310;DHT22;6723;48.256;16.402;2023-06-10T02:55:17;17.10;99.90
13310;DHT22;6723;48.256;16.402;2023-06-10T02:57:43;17.10;99.90
13310;DHT22;6723;48.256;16.402;2023-06-10T03:00:09;17.10;99.90
13310;DHT22;6723;48.256;16.402;2023-06-10T03:02:37;17.10;99.90
13310;DHT22;6723;48.256;16.402;2023-06-10T03:05:05;17.20;99.90
13310;DHT22;6723;48.256;16.402;2023-06-10T03:07:31;17.10;99.90
13310;DHT22;6723;48.256;16.402;2023-06-10T03:09:57;17.10;99.90
13310;DHT22;6723;48.256;16.402;2023-06-10T03:12:23;17.10;99.90
13310;DHT22;6723;48.256;16.402;2023-06-10T03:14:49;17.10;99.90
13310;DHT22;6723;48.256;16.402;2023-06-10T03:17:14;17.10;99.90
13310;DHT22;6723;48.256;16.402;2023-06-10T03:19:40;17.10;99.90
13310;DHT22;6723;48.256;16.402;2023-06-10T03:22:14;17.10;99.90
13310;DHT22;6723;48.256;16.402;2023-06-10T03:24:40;17.10;99.90
13310;DHT22;6723;48.256;16.402;2023-06-10T03:27:10;17.10;99.90
13310;DHT22;6723;48.256;16.402;2023-06-10T03:29:40;17.10;99.90
13310;DHT22;6723;48.256;16.402;2023-06-10T03:32:06;17.20;99.90
13310;DHT22;6723;48.256;16.402;2023-06-10T03:34:32;17.30;99.90
13310;DHT22;6723;48.256;16.402;2023-06-10T03:36:58;17.30;99.90
13310;DHT22;6723;48.256;16.402;2023-06-10T03:39:25;17.30;99.90
13310;DHT22;6723;48.256;16.402;2023-06-10T03:41:54;17.40;99.90
13310;DHT22;6723;48.256;16.402;2023-06-10T03:44:20;17.50;99.90
13310;DHT22;6723;48.256;16.402;2023-06-10T03:46:46;17.60;99.90
13310;DHT22;6723;48.256;16.402;2023-06-10T03:49:13;17.70;99.90
13310;DHT22;6723;48.256;16.402;2023-06-10T03:51:40;17.70;99.90
13310;DHT22;6723;48.256;16.402;2023-06-10T03:54:06;17.80;99.90
13310;DHT22;6723;48.256;16.402;2023-06-10T03:56:32;17.90;99.90
13310;DHT22;6723;48.256;16.402;2023-06-10T03:58:58;17.90;99.90
13310;DHT22;6723;48.256;16.402;2023-06-10T04:01:24;18.00;99.90
13310;DHT22;6723;48.256;16.402;2023-06-10T04:03:50;18.00;99.90
13310;DHT22;6723;48.256;16.402;2023-06-10T04:06:17;18.10;99.90
13310;DHT22;6723;48.256;16.402;2023-06-10T04:08:43;18.20;99.90
13310;DHT22;6723;48.256;16.402;2023-06-10T04:11:09;18.20;99.90
13310;DHT22;6723;48.256;16.402;2023-06-10T04:13:35;18.20;99.90
13310;DHT22;6723;48.256;16.402;2023-06-10T04:16:02;18.30;99.90
13310;DHT22;6723;48.256;16.402;2023-06-10T04:18:29;18.30;99.90
13310;DHT22;6723;48.256;16.402;2023-06-10T04:20:54;18.30;99.90
13310;DHT22;6723;48.256;16.402;2023-06-10T04:23:21;18.40;99.90
13310;DHT22;6723;48.256;16.402;2023-06-10T04:25:46;18.50;99.90
13310;DHT22;6723;48.256;16.402;2023-06-10T04:28:13;18.60;99.90
13310;DHT22;6723;48.256;16.402;2023-06-10T04:30:39;18.60;99.90
13310;DHT22;6723;48.256;16.402;2023-06-10T04:33:05;18.60;99.90
13310;DHT22;6723;48.256;16.402;2023-06-10T04:35:32;18.70;99.90
13310;DHT22;6723;48.256;16.402;2023-06-10T04:37:58;18.80;99.90
13310;DHT22;6723;48.256;16.402;2023-06-10T04:40:24;18.70;99.90
13310;DHT22;6723;48.256;16.402;2023-06-10T04:42:50;18.90;99.90
13310;DHT22;6723;48.256;16.402;2023-06-10T04:45:15;19.00;99.90
13310;DHT22;6723;48.256;16.402;2023-06-10T04:47:41;19.00;99.90
13310;DHT22;6723;48.256;16.402;2023-06-10T04:50:07;19.00;99.90
13310;DHT22;6723;48.256;16.402;2023-06-10T04:52:33;19.00;99.90
13310;DHT22;6723;48.256;16.402;2023-06-10T04:54:59;19.00;99.90
13310;DHT22;6723;48.256;16.402;2023-06-10T04:57:25;19.10;99.90
13310;DHT22;6723;48.256;16.402;2023-06-10T04:59:52;19.30;99.90
13310;DHT22;6723;48.256;16.402;2023-06-10T05:02:18;19.50;99.90
13310;DHT22;6723;48.256;16.402;2023-06-10T05:04:51;19.60;99.90
13310;DHT22;6723;48.256;16.402;2023-06-10T05:07:16;19.90;99.90
13310;DHT22;6723;48.256;16.402;2023-06-10T05:09:42;20.10;99.90
13310;DHT22;6723;48.256;16.402;2023-06-10T05:12:08;20.00;99.90
13310;DHT22;6723;48.256;16.402;2023-06-10T05:14:34;20.00;99.90
13310;DHT22;6723;48.256;16.402;2023-06-10T05:17:00;20.10;99.90
13310;DHT22;6723;48.256;16.402;2023-06-10T05:19:26;20.00;99.90
13310;DHT22;6723;48.256;16.402;2023-06-10T05:21:52;20.00;99.90
13310;DHT22;6723;48.256;16.402;2023-06-10T05:24:18;20.00;99.90
13310;DHT22;6723;48.256;16.402;2023-06-10T05:26:44;20.10;99.90
13310;DHT22;6723;48.256;16.402;2023-06-10T05:29:13;20.00;99.90
13310;DHT22;6723;48.256;16.402;2023-06-10T05:31:41;20.10;99.90
13310;DHT22;6723;48.256;16.402;2023-06-10T05:34:15;20.00;99.90
13310;DHT22;6723;48.256;16.402;2023-06-10T05:36:41;19.90;99.90
13310;DHT22;6723;48.256;16.402;2023-06-10T05:39:06;19.90;99.90
13310;DHT22;6723;48.256;16.402;2023-06-10T05:41:32;20.00;99.90
13310;DHT22;6723;48.256;16.402;2023-06-10T05:43:58;20.10;99.90
13310;DHT22;6723;48.256;16.402;2023-06-10T05:46:24;20.00;99.90
13310;DHT22;6723;48.256;16.402;2023-06-10T05:48:49;19.90;99.90
13310;DHT22;6723;48.256;16.402;2023-06-10T05:51:15;19.80;99.90
13310;DHT22;6723;48.256;16.402;2023-06-10T05:53:41;19.50;99.90
13310;DHT22;6723;48.256;16.402;2023-06-10T05:56:07;19.50;99.90
13310;DHT22;6723;48.256;16.402;2023-06-10T05:58:45;19.60;99.90
13310;DHT22;6723;48.256;16.402;2023-06-10T06:01:10;19.40;99.90
13310;DHT22;6723;48.256;16.402;2023-06-10T06:03:36;19.40;99.90
13310;DHT22;6723;48.256;16.402;2023-06-10T06:06:03;19.50;99.90
13310;DHT22;6723;48.256;16.402;2023-06-10T06:08:29;19.60;99.90
13310;DHT22;6723;48.256;16.402;2023-06-10T06:10:55;19.50;99.90
13310;DHT22;6723;48.256;16.402;2023-06-10T06:13:21;19.40;99.90
13310;DHT22;6723;48.256;16.402;2023-06-10T06:15:46;19.40;99.90
13310;DHT22;6723;48.256;16.402;2023-06-10T06:18:12;19.30;99.90
13310;DHT22;6723;48.256;16.402;2023-06-10T06:20:38;19.20;99.90
13310;DHT22;6723;48.256;16.402;2023-06-10T06:23:04;19.20;99.90
13310;DHT22;6723;48.256;16.402;2023-06-10T06:25:34;19.10;99.90
13310;DHT22;6723;48.256;16.402;2023-06-10T06:28:01;19.20;99.90
13310;DHT22;6723;48.256;16.402;2023-06-10T06:30:27;19.20;99.90
13310;DHT22;6723;48.256;16.402;2023-06-10T06:32:53;19.30;99.90
13310;DHT22;6723;48.256;16.402;2023-06-10T06:35:19;19.30;99.90
13310;DHT22;6723;48.256;16.402;2023-06-10T06:37:45;19.30;99.90
13310;DHT22;6723;48.256;16.402;2023-06-10T06:40:11;19.20;99.90
13310;DHT22;6723;48.256;16.402;2023-06-10T06:42:37;19.30;99.90
13310;DHT22;6723;48.256;16.402;2023-06-10T06:45:03;19.20;99.90
13310;DHT22;6723;48.256;16.402;2023-06-10T06:47:29;19.20;99.90
13310;DHT22;6723;48.256;16.402;2023-06-10T06:49:54;19.30;99.90
13310;DHT22;6723;48.256;16.402;2023-06-10T06:52:20;19.40;99.90
13310;DHT22;6723;48.256;16.402;2023-06-10T06:54:47;19.40;99.90
13310;DHT22;6723;48.256;16.402;2023-06-10T06:57:13;19.40;99.90
13310;DHT22;6723;48.256;16.402;2023-06-10T06:59:51;19.40;99.90
13310;DHT22;6723;48.256;16.402;2023-06-10T07:02:16;19.40;99.90
13310;DHT22;6723;48.256;16.402;2023-06-10T07:04:44;19.50;99.90
13310;DHT22;6723;48.256;16.402;2023-06-10T07:07:11;19.50;99.90
13310;DHT22;6723;48.256;16.402;2023-06-10T07:09:37;19.50;99.90
13310;DHT22;6723;48.256;16.402;2023-06-10T07:12:04;19.50;99.90
13310;DHT22;6723;48.256;16.402;2023-06-10T07:14:31;19.50;99.90
13310;DHT22;6723;48.256;16.402;2023-06-10T07:16:56;19.60;99.90
13310;DHT22;6723;48.256;16.402;2023-06-10T07:19:22;19.70;99.90
13310;DHT22;6723;48.256;16.402;2023-06-10T07:21:48;19.80;99.90
13310;DHT22;6723;48.256;16.402;2023-06-10T07:24:14;19.80;99.90
13310;DHT22;6723;48.256;16.402;2023-06-10T07:26:40;19.70;99.90
13310;DHT22;6723;48.256;16.402;2023-06-10T07:29:05;19.80;99.90
13310;DHT22;6723;48.256;16.402;2023-06-10T07:31:31;19.90;99.90
13310;DHT22;6723;48.256;16.402;2023-06-10T07:33:57;19.80;99.90
13310;DHT22;6723;48.256;16.402;2023-06-10T07:36:23;20.00;99.90
13310;DHT22;6723;48.256;16.402;2023-06-10T07:38:48;20.10;99.90
13310;DHT22;6723;48.256;16.402;2023-06-10T07:41:14;20.20;99.90
13310;DHT22;6723;48.256;16.402;2023-06-10T07:43:43;20.20;99.90
13310;DHT22;6723;48.256;16.402;2023-06-10T07:46:09;20.10;99.90
13310;DHT22;6723;48.256;16.402;2023-06-10T07:48:35;20.00;99.90
13310;DHT22;6723;48.256;16.402;2023-06-10T07:51:00;20.00;99.90
13310;DHT22;6723;48.256;16.402;2023-06-10T07:53:26;20.00;99.90
13310;DHT22;6723;48.256;16.402;2023-06-10T07:55:52;20.00;99.90
13310;DHT22;6723;48.256;16.402;2023-06-10T07:58:18;20.00;99.90
13310;DHT22;6723;48.256;16.402;2023-06-10T08:00:43;20.10;99.90
13310;DHT22;6723;48.256;16.402;2023-06-10T08:03:29;20.00;99.90
13310;DHT22;6723;48.256;16.402;2023-06-10T08:05:55;19.90;99.90
13310;DHT22;6723;48.256;16.402;2023-06-10T08:08:21;19.90;99.90
13310;DHT22;6723;48.256;16.402;2023-06-10T08:10:46;19.80;99.90
13310;DHT22;6723;48.256;16.402;2023-06-10T08:13:13;19.70;99.90
13310;DHT22;6723;48.256;16.402;2023-06-10T08:15:39;19.80;99.90
13310;DHT22;6723;48.256;16.402;2023-06-10T08:18:04;19.80;99.90
13310;DHT22;6723;48.256;16.402;2023-06-10T08:20:30;20.00;99.90
13310;DHT22;6723;48.256;16.402;2023-06-10T08:22:56;20.10;99.90
13310;DHT22;6723;48.256;16.402;2023-06-10T08:25:22;20.30;99.90
13310;DHT22;6723;48.256;16.402;2023-06-10T08:27:48;20.50;99.90
13310;DHT22;6723;48.256;16.402;2023-06-10T08:30:14;20.60;99.90
13310;DHT22;6723;48.256;16.402;2023-06-10T08:32:40;20.80;99.90
13310;DHT22;6723;48.256;16.402;2023-06-10T08:35:06;20.80;99.90
13310;DHT22;6723;48.256;16.402;2023-06-10T08:37:32;20.80;99.90
13310;DHT22;6723;48.256;16.402;2023-06-10T08:39:59;20.70;99.90
13310;DHT22;6723;48.256;16.402;2023-06-10T08:42:33;20.70;99.90
13310;DHT22;6723;48.256;16.402;2023-06-10T08:45:01;20.90;99.90
13310;DHT22;6723;48.256;16.402;2023-06-10T08:47:30;20.70;99.90
13310;DHT22;6723;48.256;16.402;2023-06-10T08:50:03;20.80;99.90
13310;DHT22;6723;48.256;16.402;2023-06-10T08:55:43;21.00;99.90
13310;DHT22;6723;48.256;16.402;2023-06-10T08:58:11;21.10;99.90
13310;DHT22;6723;48.256;16.402;2023-06-10T09:00:40;21.00;99.90
13310;DHT22;6723;48.256;16.402;2023-06-10T09:03:10;21.00;99.90
13310;DHT22;6723;48.256;16.402;2023-06-10T09:05:48;21.00;99.90
13310;DHT22;6723;48.256;16.402;2023-06-10T09:08:17;21.10;99.90
13310;DHT22;6723;48.256;16.402;2023-06-10T09:10:47;21.20;99.90
13310;DHT22;6723;48.256;16.402;2023-06-10T09:13:14;21.30;99.90
13310;DHT22;6723;48.256;16.402;2023-06-10T09:15:41;21.40;99.90
13310;DHT22;6723;48.256;16.402;2023-06-10T09:18:07;21.50;99.90
13310;DHT22;6723;48.256;16.402;2023-06-10T09:20:33;21.70;99.90
13310;DHT22;6723;48.256;16.402;2023-06-10T09:23:00;22.00;99.90
13310;DHT22;6723;48.256;16.402;2023-06-10T09:25:37;22.30;99.90
13310;DHT22;6723;48.256;16.402;2023-06-10T09:28:04;22.50;99.90
13310;DHT22;6723;48.256;16.402;2023-06-10T09:30:32;22.40;99.90
13310;DHT22;6723;48.256;16.402;2023-06-10T09:33:09;22.50;99.90
13310;DHT22;6723;48.256;16.402;2023-06-10T09:35:35;22.60;99.90
13310;DHT22;6723;48.256;16.402;2023-06-10T09:38:01;22.40;99.90
13310;DHT22;6723;48.256;16.402;2023-06-10T09:41:03;22.50;99.90
13310;DHT22;6723;48.256;16.402;2023-06-10T09:43:49;23.00;99.90
13310;DHT22;6723;48.256;16.402;2023-06-10T09:46:19;23.40;99.90
13310;DHT22;6723;48.256;16.402;2023-06-10T09:48:47;24.00;99.90
13310;DHT22;6723;48.256;16.402;2023-06-10T09:51:14;24.00;99.90
13310;DHT22;6723;48.256;16.402;2023-06-10T09:53:42;24.20;99.90
13310;DHT22;6723;48.256;16.402;2023-06-10T09:56:08;24.50;99.90
13310;DHT22;6723;48.256;16.402;2023-06-10T09:58:40;24.50;99.90
13310;DHT22;6723;48.256;16.402;2023-06-10T10:01:10;24.60;99.90
13310;DHT22;6723;48.256;16.402;2023-06-10T10:03:47;24.30;99.90
13310;DHT22;6723;48.256;16.402;2023-06-10T10:06:14;24.40;99.90
13310;DHT22;6723;48.256;16.402;2023-06-10T10:08:41;24.70;99.90
13310;DHT22;6723;48.256;16.402;2023-06-10T10:11:07;24.40;99.90
13310;DHT22;6723;48.256;16.402;2023-06-10T10:13:34;24.20;99.90
13310;DHT22;6723;48.256;16.402;2023-06-10T10:16:04;23.90;99.90
13310;DHT22;6723;48.256;16.402;2023-06-10T10:18:32;23.80;99.90
13310;DHT22;6723;48.256;16.402;2023-06-10T10:21:02;24.00;99.90
13310;DHT22;6723;48.256;16.402;2023-06-10T10:23:48;24.40;99.90
13310;DHT22;6723;48.256;16.402;2023-06-10T10:26:17;24.70;99.90
13310;DHT22;6723;48.256;16.402;2023-06-10T10:31:32;25.10;99.90
13310;DHT22;6723;48.256;16.402;2023-06-10T10:33:59;25.20;99.90
13310;DHT22;6723;48.256;16.402;2023-06-10T10:36:27;25.50;99.90
13310;DHT22;6723;48.256;16.402;2023-06-10T10:38:53;26.10;99.90
13310;DHT22;6723;48.256;16.402;2023-06-10T10:41:20;26.80;99.90
13310;DHT22;6723;48.256;16.402;2023-06-10T10:43:47;27.20;99.90
13310;DHT22;6723;48.256;16.402;2023-06-10T10:46:16;27.40;99.90
13310;DHT22;6723;48.256;16.402;2023-06-10T10:48:43;28.00;99.90
13310;DHT22;6723;48.256;16.402;2023-06-10T10:51:10;28.20;99.90
13310;DHT22;6723;48.256;16.402;2023-06-10T10:53:37;28.40;99.90
13310;DHT22;6723;48.256;16.402;2023-06-10T10:56:12;28.10;99.90
13310;DHT22;6723;48.256;16.402;2023-06-10T10:58:38;28.50;99.90
13310;DHT22;6723;48.256;16.402;2023-06-10T11:01:12;28.40;99.90
13310;DHT22;6723;48.256;16.402;2023-06-10T11:03:45;28.10;99.90
13310;DHT22;6723;48.256;16.402;2023-06-10T11:06:17;28.70;99.90
13310;DHT22;6723;48.256;16.402;2023-06-10T11:11:23;27.60;99.90
13310;DHT22;6723;48.256;16.402;2023-06-10T11:16:30;27.40;99.90
13310;DHT22;6723;48.256;16.402;2023-06-10T11:18:56;26.90;99.90
13310;DHT22;6723;48.256;16.402;2023-06-10T11:21:25;27.20;99.90
13310;DHT22;6723;48.256;16.402;2023-06-10T11:23:51;27.80;99.90
13310;DHT22;6723;48.256;16.402;2023-06-10T11:34:03;28.40;99.90
13310;DHT22;6723;48.256;16.402;2023-06-10T11:36:31;28.60;99.90
13310;DHT22;6723;48.256;16.402;2023-06-10T11:39:04;28.30;99.90
13310;DHT22;6723;48.256;16.402;2023-06-10T11:41:32;29.20;99.90
13310;DHT22;6723;48.256;16.402;2023-06-10T11:44:03;28.90;99.90
13310;DHT22;6723;48.256;16.402;2023-06-10T11:46:29;28.90;99.90
13310;DHT22;6723;48.256;16.402;2023-06-10T11:48:57;28.80;99.90
13310;DHT22;6723;48.256;16.402;2023-06-10T11:51:33;28.40;99.90
13310;DHT22;6723;48.256;16.402;2023-06-10T11:53:59;28.00;99.90
13310;DHT22;6723;48.256;16.402;2023-06-10T11:56:28;28.20;99.90
13310;DHT22;6723;48.256;16.402;2023-06-10T11:59:03;28.60;99.90
13310;DHT22;6723;48.256;16.402;2023-06-10T12:01:37;28.90;99.90
13310;DHT22;6723;48.256;16.402;2023-06-10T12:04:11;29.20;99.90
13310;DHT22;6723;48.256;16.402;2023-06-10T12:09:24;29.90;98.60
13310;DHT22;6723;48.256;16.402;2023-06-10T12:14:58;29.20;99.80
13310;DHT22;6723;48.256;16.402;2023-06-10T12:17:37;29.40;99.90
13310;DHT22;6723;48.256;16.402;2023-06-10T12:22:41;29.60;99.70
13310;DHT22;6723;48.256;16.402;2023-06-10T12:25:08;29.40;98.70
13310;DHT22;6723;48.256;16.402;2023-06-10T12:27:36;29.20;99.60
13310;DHT22;6723;48.256;16.402;2023-06-10T12:30:04;28.90;99.30
13310;DHT22;6723;48.256;16.402;2023-06-10T12:35:06;27.30;99.90
13310;DHT22;6723;48.256;16.402;2023-06-10T12:37:32;26.40;99.90
13310;DHT22;6723;48.256;16.402;2023-06-10T12:40:03;25.30;99.90
13310;DHT22;6723;48.256;16.402;2023-06-10T12:42:31;24.60;99.90
13310;DHT22;6723;48.256;16.402;2023-06-10T12:45:00;24.20;99.90
13310;DHT22;6723;48.256;16.402;2023-06-10T12:47:44;24.20;99.90
13310;DHT22;6723;48.256;16.402;2023-06-10T12:50:11;23.90;99.90
13310;DHT22;6723;48.256;16.402;2023-06-10T12:52:37;24.00;99.90
13310;DHT22;6723;48.256;16.402;2023-06-10T12:55:03;24.00;99.90
13310;DHT22;6723;48.256;16.402;2023-06-10T12:57:50;24.20;99.90
13310;DHT22;6723;48.256;16.402;2023-06-10T13:00:17;24.10;99.90
13310;DHT22;6723;48.256;16.402;2023-06-10T13:02:43;24.30;99.90
13310;DHT22;6723;48.256;16.402;2023-06-10T13:05:09;24.60;99.90
13310;DHT22;6723;48.256;16.402;2023-06-10T13:07:35;25.00;99.90
13310;DHT22;6723;48.256;16.402;2023-06-10T13:10:01;25.10;99.90
13310;DHT22;6723;48.256;16.402;2023-06-10T13:12:29;25.30;99.90
13310;DHT22;6723;48.256;16.402;2023-06-10T13:14:56;25.80;99.90
13310;DHT22;6723;48.256;16.402;2023-06-10T13:17:22;26.20;99.90
13310;DHT22;6723;48.256;16.402;2023-06-10T13:19:49;26.30;99.90
13310;DHT22;6723;48.256;16.402;2023-06-10T13:22:15;26.10;99.90
13310;DHT22;6723;48.256;16.402;2023-06-10T13:24:41;25.70;99.90
13310;DHT22;6723;48.256;16.402;2023-06-10T13:27:09;25.50;99.90
13310;DHT22;6723;48.256;16.402;2023-06-10T13:29:36;25.30;99.90
13310;DHT22;6723;48.256;16.402;2023-06-10T13:32:03;24.90;99.90
13310;DHT22;6723;48.256;16.402;2023-06-10T13:34:28;25.00;99.90
13310;DHT22;6723;48.256;16.402;2023-06-10T13:36:54;25.20;99.90
13310;DHT22;6723;48.256;16.402;2023-06-10T13:39:20;25.20;99.90
13310;DHT22;6723;48.256;16.402;2023-06-10T13:41:46;24.60;99.90
13310;DHT22;6723;48.256;16.402;2023-06-10T13:44:12;24.50;99.90
13310;DHT22;6723;48.256;16.402;2023-06-10T13:46:38;24.30;99.90
13310;DHT22;6723;48.256;16.402;2023-06-10T13:49:04;24.40;99.90
13310;DHT22;6723;48.256;16.402;2023-06-10T13:51:29;24.50;99.90
13310;DHT22;6723;48.256;16.402;2023-06-10T13:53:55;24.80;99.90
13310;DHT22;6723;48.256;16.402;2023-06-10T13:56:21;24.70;99.90
13310;DHT22;6723;48.256;16.402;2023-06-10T13:58:47;24.50;99.90
13310;DHT22;6723;48.256;16.402;2023-06-10T14:01:13;24.70;99.90
13310;DHT22;6723;48.256;16.402;2023-06-10T14:03:39;24.80;99.90
13310;DHT22;6723;48.256;16.402;2023-06-10T14:06:04;24.80;99.90
13310;DHT22;6723;48.256;16.402;2023-06-10T14:08:30;24.90;99.90
13310;DHT22;6723;48.256;16.402;2023-06-10T14:10:56;25.10;99.90
13310;DHT22;6723;48.256;16.402;2023-06-10T14:13:22;25.20;99.90
13310;DHT22;6723;48.256;16.402;2023-06-10T14:15:47;25.50;99.90
13310;DHT22;6723;48.256;16.402;2023-06-10T14:18:13;25.60;99.90
13310;DHT22;6723;48.256;16.402;2023-06-10T14:20:39;25.70;99.90
13310;DHT22;6723;48.256;16.402;2023-06-10T14:23:05;25.90;99.90
13310;DHT22;6723;48.256;16.402;2023-06-10T14:25:30;25.80;99.90
13310;DHT22;6723;48.256;16.402;2023-06-10T14:27:56;25.80;99.90
13310;DHT22;6723;48.256;16.402;2023-06-10T14:30:23;26.00;99.90
13310;DHT22;6723;48.256;16.402;2023-06-10T14:32:48;26.10;99.90
13310;DHT22;6723;48.256;16.402;2023-06-10T14:38:27;25.70;99.90
13310;DHT22;6723;48.256;16.402;2023-06-10T14:40:52;25.40;99.90
13310;DHT22;6723;48.256;16.402;2023-06-10T14:43:18;25.30;99.90
13310;DHT22;6723;48.256;16.402;2023-06-10T14:45:44;25.40;99.90
13310;DHT22;6723;48.256;16.402;2023-06-10T14:48:13;25.50;99.90
13310;DHT22;6723;48.256;16.402;2023-06-10T14:50:38;25.80;99.90
13310;DHT22;6723;48.256;16.402;2023-06-10T14:53:06;26.00;99.90
13310;DHT22;6723;48.256;16.402;2023-06-10T14:55:32;25.90;99.90
13310;DHT22;6723;48.256;16.402;2023-06-10T14:57:57;25.80;99.90
13310;DHT22;6723;48.256;16.402;2023-06-10T15:00:24;25.70;99.90
13310;DHT22;6723;48.256;16.402;2023-06-10T15:02:51;25.40;99.90
13310;DHT22;6723;48.256;16.402;2023-06-10T15:05:17;25.30;99.90
13310;DHT22;6723;48.256;16.402;2023-06-10T15:07:47;25.50;99.90
13310;DHT22;6723;48.256;16.402;2023-06-10T15:10:13;25.50;99.90
13310;DHT22;6723;48.256;16.402;2023-06-10T15:12:39;25.40;99.90
13310;DHT22;6723;48.256;16.402;2023-06-10T15:15:05;25.30;99.90
13310;DHT22;6723;48.256;16.402;2023-06-10T15:17:31;25.00;99.90
13310;DHT22;6723;48.256;16.402;2023-06-10T15:19:57;24.60;99.90
13310;DHT22;6723;48.256;16.402;2023-06-10T15:22:33;24.00;99.90
13310;DHT22;6723;48.256;16.402;2023-06-10T15:24:59;23.20;99.90
13310;DHT22;6723;48.256;16.402;2023-06-10T15:27:25;22.20;99.90
13310;DHT22;6723;48.256;16.402;2023-06-10T15:29:50;21.60;99.90
13310;DHT22;6723;48.256;16.402;2023-06-10T15:32:17;20.90;99.90
13310;DHT22;6723;48.256;16.402;2023-06-10T15:34:42;20.60;99.90
13310;DHT22;6723;48.256;16.402;2023-06-10T15:37:08;20.40;99.90
13310;DHT22;6723;48.256;16.402;2023-06-10T15:39:39;20.40;99.90
13310;DHT22;6723;48.256;16.402;2023-06-10T15:42:06;20.30;99.90
13310;DHT22;6723;48.256;16.402;2023-06-10T15:44:33;20.10;99.90
13310;DHT22;6723;48.256;16.402;2023-06-10T15:47:06;20.00;99.90
13310;DHT22;6723;48.256;16.402;2023-06-10T15:49:32;20.00;99.90
13310;DHT22;6723;48.256;16.402;2023-06-10T15:51:57;19.90;99.90
13310;DHT22;6723;48.256;16.402;2023-06-10T15:54:25;19.90;99.90
13310;DHT22;6723;48.256;16.402;2023-06-10T15:56:51;19.90;99.90
13310;DHT22;6723;48.256;16.402;2023-06-10T15:59:17;19.80;99.90
13310;DHT22;6723;48.256;16.402;2023-06-10T16:01:43;19.70;99.90
13310;DHT22;6723;48.256;16.402;2023-06-10T16:04:08;19.50;99.90
13310;DHT22;6723;48.256;16.402;2023-06-10T16:06:34;19.50;99.90
13310;DHT22;6723;48.256;16.402;2023-06-10T16:09:01;19.40;99.90
13310;DHT22;6723;48.256;16.402;2023-06-10T16:11:27;19.30;99.90